Wetterdaten: Woche 26.06.17 - 02.07.17 (KW26)
Datum Zeit Temp. I. Temp. A. Feuchte I. Feuchte A. Luftdruck Regen Wind Richtung Sonnenschein UV Solar Taupunkt Windchill Windben
26.06.2017 00:00 26,2 C 17,6 C 47 % 73 % 1012,6 hPa 0,0 l/m 0,8 km/h (0 Bft) W-SW 0,00 h 0,0 UV-I 0 W/m 12,8 C 17,6 C 2,5 km/h (1 Bft)
26.06.2017 01:00 26,1 C 17,2 C 47 % 76 % 1012,5 hPa 0,0 l/m 0,3 km/h (0 Bft) SW 0,00 h 0,0 UV-I 0 W/m 12,9 C 17,2 C 0,7 km/h (0 Bft)
26.06.2017 02:00 26,1 C 17,2 C 47 % 76 % 1012,5 hPa 0,0 l/m 1,0 km/h (0 Bft) W-SW 0,00 h 0,0 UV-I 0 W/m 13,0 C 17,2 C 3,1 km/h (1 Bft)
26.06.2017 03:00 26,2 C 16,2 C 48 % 80 % 1012,1 hPa 0,0 l/m 0,0 km/h (0 Bft) N 0,00 h 0,0 UV-I 0 W/m 12,7 C 16,2 C 0,1 km/h (0 Bft)
26.06.2017 04:00 26,2 C 15,5 C 48 % 82 % 1011,8 hPa 0,0 l/m 0,0 km/h (0 Bft) N 0,00 h 0,0 UV-I 0 W/m 12,6 C 15,5 C 0,0 km/h (0 Bft)
26.06.2017 05:00 25,9 C 15,9 C 48 % 82 % 1011,5 hPa 0,0 l/m 1,6 km/h (1 Bft) S-SW 0,00 h 0,0 UV-I 13 W/m 12,7 C 15,8 C 3,7 km/h (1 Bft)
26.06.2017 06:00 25,8 C 16,9 C 48 % 78 % 1011,6 hPa 0,0 l/m 2,9 km/h (1 Bft) W-SW 0,00 h 0,0 UV-I 42 W/m 13,1 C 16,9 C 6,1 km/h (2 Bft)
26.06.2017 07:00 25,9 C 17,6 C 48 % 77 % 1011,6 hPa 0,0 l/m 2,0 km/h (1 Bft) SW 0,15 h 0,8 UV-I 114 W/m 13,5 C 17,6 C 5,4 km/h (1 Bft)
26.06.2017 08:00 25,5 C 20,0 C 49 % 70 % 1011,4 hPa 0,0 l/m 6,9 km/h (2 Bft) SW 0,93 h 1,7 UV-I 403 W/m 14,3 C 19,4 C 11,0 km/h (2 Bft)
26.06.2017 09:00 25,5 C 21,0 C 49 % 67 % 1011,3 hPa 0,0 l/m 10,1 km/h (2 Bft) W-SW 0,93 h 2,5 UV-I 391 W/m 14,5 C 19,7 C 17,2 km/h (3 Bft)
26.06.2017 10:00 25,8 C 21,4 C 49 % 64 % 1011,3 hPa 0,0 l/m 11,5 km/h (2 Bft) W-SW 0,92 h 2,9 UV-I 303 W/m 14,4 C 19,9 C 20,2 km/h (4 Bft)
26.06.2017 11:00 25,8 C 22,1 C 49 % 62 % 1011,2 hPa 0,0 l/m 7,3 km/h (2 Bft) W-SW 0,98 h 4,2 UV-I 451 W/m 14,5 C 21,5 C 13,6 km/h (3 Bft)
26.06.2017 12:00 26,0 C 23,0 C 49 % 58 % 1011,1 hPa 0,0 l/m 7,4 km/h (2 Bft) W-SW 1,00 h 3,7 UV-I 364 W/m 14,4 C 22,5 C 13,4 km/h (3 Bft)
26.06.2017 13:00 26,1 C 24,1 C 49 % 56 % 1010,8 hPa 0,0 l/m 4,8 km/h (1 Bft) W 1,00 h 5,3 UV-I 493 W/m 14,7 C 23,9 C 9,5 km/h (2 Bft)
26.06.2017 14:00 26,4 C 25,6 C 50 % 50 % 1010,4 hPa 0,0 l/m 7,8 km/h (2 Bft) W 1,00 h 5,7 UV-I 634 W/m 14,4 C 25,2 C 13,4 km/h (3 Bft)
26.06.2017 15:00 26,6 C 25,9 C 50 % 48 % 1010,2 hPa 0,0 l/m 5,2 km/h (1 Bft) W-NW 1,00 h 3,9 UV-I 595 W/m 14,1 C 25,7 C 8,9 km/h (2 Bft)
26.06.2017 16:00 26,8 C 25,8 C 49 % 48 % 1009,8 hPa 0,0 l/m 4,0 km/h (1 Bft) W 1,00 h 3,1 UV-I 486 W/m 13,9 C 25,7 C 6,6 km/h (2 Bft)
26.06.2017 17:00 27,0 C 25,7 C 48 % 48 % 1009,5 hPa 0,0 l/m 6,4 km/h (2 Bft) W-SW 0,43 h 1,9 UV-I 269 W/m 14,0 C 25,5 C 11,2 km/h (2 Bft)
26.06.2017 18:00 27,0 C 25,4 C 48 % 49 % 1009,3 hPa 0,0 l/m 5,9 km/h (2 Bft) W-SW 0,00 h 0,9 UV-I 61 W/m 13,9 C 25,2 C 10,4 km/h (2 Bft)
26.06.2017 19:00 27,0 C 24,2 C 48 % 55 % 1009,3 hPa 0,0 l/m 4,2 km/h (1 Bft) N 0,00 h 0,5 UV-I 54 W/m 14,6 C 24,0 C 4,9 km/h (1 Bft)
26.06.2017 20:00 26,8 C 22,0 C 49 % 64 % 1009,6 hPa 0,0 l/m 3,2 km/h (1 Bft) N 0,00 h 0,0 UV-I 16 W/m 14,9 C 21,9 C 5,0 km/h (1 Bft)
26.06.2017 21:00 26,6 C 19,7 C 49 % 72 % 1010,4 hPa 0,0 l/m 3,1 km/h (1 Bft) N 0,00 h 0,0 UV-I 6 W/m 14,4 C 19,7 C 1,8 km/h (1 Bft)
26.06.2017 22:00 26,3 C 18,0 C 50 % 78 % 1010,6 hPa 0,0 l/m 3,2 km/h (1 Bft) N 0,00 h 0,0 UV-I 0 W/m 14,0 C 18,0 C 0,0 km/h (0 Bft)
26.06.2017 23:00 26,3 C 17,0 C 50 % 81 % 1010,9 hPa 0,0 l/m 3,2 km/h (1 Bft) N 0,00 h 0,0 UV-I 0 W/m 13,8 C 17,0 C 0,0 km/h (0 Bft)
27.06.2017 00:00 26,2 C 16,2 C 50 % 84 % 1011,1 hPa 0,0 l/m 3,2 km/h (1 Bft) N 0,00 h 0,0 UV-I 0 W/m 13,5 C 16,2 C 0,0 km/h (0 Bft)
27.06.2017 01:00 26,1 C 15,9 C 50 % 85 % 1010,8 hPa 0,0 l/m 3,2 km/h (1 Bft) N 0,00 h 0,0 UV-I 0 W/m 13,4 C 15,9 C 0,0 km/h (0 Bft)
27.06.2017 02:00 26,1 C 15,8 C 50 % 85 % 1010,4 hPa 0,0 l/m 3,2 km/h (1 Bft) N 0,00 h 0,0 UV-I 0 W/m 13,2 C 15,8 C 0,0 km/h (0 Bft)
27.06.2017 03:00 26,2 C 15,5 C 50 % 84 % 1010,4 hPa 0,0 l/m 1,7 km/h (1 Bft) N 0,00 h 0,0 UV-I 0 W/m 12,8 C 15,5 C 0,3 km/h (0 Bft)
27.06.2017 04:00 26,3 C 15,2 C 49 % 83 % 1010,0 hPa 0,0 l/m 2,1 km/h (1 Bft) N 0,00 h 0,0 UV-I 0 W/m 12,4 C 15,2 C 2,0 km/h (1 Bft)
27.06.2017 05:00 25,9 C 15,0 C 49 % 83 % 1009,6 hPa 0,0 l/m 4,8 km/h (1 Bft) N 0,00 h 0,0 UV-I 19 W/m 12,1 C 14,9 C 4,8 km/h (1 Bft)
27.06.2017 06:00 25,9 C 15,4 C 48 % 82 % 1009,8 hPa 0,0 l/m 2,8 km/h (1 Bft) N 0,00 h 0,0 UV-I 41 W/m 12,3 C 15,4 C 0,8 km/h (0 Bft)
27.06.2017 07:00 26,0 C 16,4 C 48 % 77 % 1010,0 hPa 0,0 l/m 3,4 km/h (1 Bft) N 0,00 h 0,5 UV-I 82 W/m 12,3 C 16,4 C 1,3 km/h (1 Bft)
27.06.2017 08:00 25,6 C 16,9 C 47 % 74 % 1010,6 hPa 0,0 l/m 2,9 km/h (1 Bft) SO 0,00 h 0,6 UV-I 71 W/m 12,1 C 16,8 C 5,2 km/h (1 Bft)
27.06.2017 09:00 25,4 C 15,1 C 48 % 90 % 1010,8 hPa 1,4 l/m 3,7 km/h (1 Bft) N 0,00 h 0,8 UV-I 90 W/m 13,5 C 14,7 C 0,0 km/h (0 Bft)
27.06.2017 10:00 25,4 C 15,1 C 49 % 93 % 1010,6 hPa 0,6 l/m 0,2 km/h (0 Bft) N-NO 0,48 h 1,3 UV-I 144 W/m 14,0 C 15,1 C 0,7 km/h (0 Bft)
27.06.2017 11:00 25,7 C 15,3 C 50 % 93 % 1010,2 hPa 0,2 l/m 0,0 km/h (0 Bft) N-NO 0,02 h 1,0 UV-I 97 W/m 14,1 C 15,3 C 0,1 km/h (0 Bft)
27.06.2017 12:00 25,8 C 16,1 C 50 % 92 % 1009,6 hPa 0,2 l/m 0,0 km/h (0 Bft) N 1,00 h 2,2 UV-I 230 W/m 14,9 C 16,1 C 0,0 km/h (0 Bft)
27.06.2017 13:00 25,9 C 16,9 C 51 % 90 % 1009,3 hPa 0,0 l/m 0,0 km/h (0 Bft) N 0,22 h 1,4 UV-I 135 W/m 15,3 C 16,9 C 0,0 km/h (0 Bft)
27.06.2017 14:00 26,1 C 17,0 C 52 % 87 % 1009,3 hPa 0,0 l/m 1,0 km/h (0 Bft) O-SO 0,00 h 1,1 UV-I 107 W/m 14,9 C 17,0 C 2,2 km/h (1 Bft)
27.06.2017 15:00 26,0 C 17,0 C 52 % 86 % 1009,3 hPa 0,0 l/m 1,3 km/h (1 Bft) O-NO 0,23 h 1,3 UV-I 132 W/m 14,7 C 17,0 C 3,5 km/h (1 Bft)
27.06.2017 16:00 26,0 C 17,8 C 52 % 85 % 1008,8 hPa 0,0 l/m 1,1 km/h (1 Bft) O 0,72 h 1,7 UV-I 200 W/m 15,2 C 17,8 C 3,2 km/h (1 Bft)
27.06.2017 17:00 26,1 C 18,3 C 53 % 83 % 1008,1 hPa 0,0 l/m 2,7 km/h (1 Bft) O-NO 0,93 h 1,5 UV-I 210 W/m 15,3 C 18,2 C 5,9 km/h (2 Bft)
27.06.2017 18:00 26,3 C 19,1 C 53 % 78 % 1007,4 hPa 0,0 l/m 2,7 km/h (1 Bft) O-NO 0,00 h 1,0 UV-I 72 W/m 15,1 C 19,1 C 8,0 km/h (2 Bft)
27.06.2017 19:00 26,2 C 18,6 C 52 % 78 % 1007,0 hPa 0,0 l/m 2,4 km/h (1 Bft) O 0,00 h 0,0 UV-I 31 W/m 14,6 C 18,5 C 5,8 km/h (2 Bft)
27.06.2017 20:00 26,3 C 17,6 C 52 % 82 % 1006,5 hPa 0,0 l/m 1,0 km/h (0 Bft) O-SO 0,00 h 0,0 UV-I 20 W/m 14,4 C 17,6 C 2,8 km/h (1 Bft)
27.06.2017 21:00 26,4 C 16,8 C 52 % 86 % 1006,4 hPa 0,0 l/m 0,2 km/h (0 Bft) O-NO 0,00 h 0,0 UV-I 9 W/m 14,3 C 16,8 C 0,9 km/h (0 Bft)
27.06.2017 22:00 26,3 C 15,9 C 52 % 89 % 1006,1 hPa 0,0 l/m 0,1 km/h (0 Bft) NO 0,00 h 0,0 UV-I 0 W/m 14,2 C 15,9 C 0,5 km/h (0 Bft)
27.06.2017 23:00 26,2 C 15,7 C 52 % 91 % 1005,3 hPa 0,0 l/m 0,0 km/h (0 Bft) N 0,00 h 0,0 UV-I 0 W/m 14,2 C 15,7 C 0,0 km/h (0 Bft)
28.06.2017 00:00 26,0 C 15,3 C 52 % 92 % 1005,0 hPa 0,0 l/m 0,4 km/h (0 Bft) O-NO 0,00 h 0,0 UV-I 0 W/m 13,9 C 15,3 C 1,0 km/h (0 Bft)
28.06.2017 01:00 25,8 C 15,1 C 52 % 93 % 1004,5 hPa 0,0 l/m 0,9 km/h (0 Bft) O-NO 0,00 h 0,0 UV-I 0 W/m 14,0 C 15,1 C 2,2 km/h (1 Bft)
28.06.2017 02:00 25,8 C 14,8 C 52 % 94 % 1003,9 hPa 0,0 l/m 0,3 km/h (0 Bft) O-NO 0,00 h 0,0 UV-I 0 W/m 13,9 C 14,8 C 1,1 km/h (1 Bft)
28.06.2017 03:00 25,8 C 15,0 C 53 % 94 % 1003,2 hPa 0,0 l/m 0,4 km/h (0 Bft) O-NO 0,00 h 0,0 UV-I 0 W/m 14,0 C 15,0 C 1,2 km/h (1 Bft)
28.06.2017 04:00 25,8 C 15,2 C 53 % 93 % 1002,4 hPa 0,0 l/m 0,7 km/h (0 Bft) O-NO 0,00 h 0,0 UV-I 0 W/m 14,1 C 15,2 C 2,1 km/h (1 Bft)
28.06.2017 05:00 25,7 C 15,2 C 53 % 92 % 1001,9 hPa 0,0 l/m 1,6 km/h (1 Bft) O-NO 0,00 h 0,0 UV-I 7 W/m 14,0 C 15,2 C 3,0 km/h (1 Bft)
28.06.2017 06:00 25,6 C 15,6 C 53 % 93 % 1001,4 hPa 0,0 l/m 2,4 km/h (1 Bft) O-NO 0,00 h 0,5 UV-I 46 W/m 14,4 C 15,5 C 4,7 km/h (1 Bft)
28.06.2017 07:00 25,7 C 16,8 C 53 % 91 % 1001,3 hPa 0,0 l/m 1,3 km/h (1 Bft) O-NO 0,35 h 0,9 UV-I 162 W/m 15,3 C 16,8 C 2,6 km/h (1 Bft)
28.06.2017 08:00 25,7 C 18,8 C 54 % 86 % 1000,8 hPa 0,0 l/m 0,1 km/h (0 Bft) N-NO 0,82 h 1,3 UV-I 266 W/m 16,4 C 18,8 C 0,4 km/h (0 Bft)
28.06.2017 09:00 25,6 C 18,5 C 56 % 90 % 1001,1 hPa 0,2 l/m 0,5 km/h (0 Bft) S 0,08 h 0,9 UV-I 104 W/m 16,8 C 18,5 C 1,1 km/h (0 Bft)
28.06.2017 10:00 25,9 C 18,6 C 55 % 91 % 1001,6 hPa 0,2 l/m 0,7 km/h (0 Bft) N 0,72 h 1,7 UV-I 212 W/m 17,0 C 18,6 C 0,5 km/h (0 Bft)
28.06.2017 11:00 25,9 C 18,9 C 55 % 91 % 1000,9 hPa 0,4 l/m 0,7 km/h (0 Bft) N 0,45 h 1,6 UV-I 189 W/m 17,3 C 18,9 C 0,6 km/h (0 Bft)
28.06.2017 12:00 25,9 C 19,9 C 56 % 87 % 1000,8 hPa 0,0 l/m 0,0 km/h (0 Bft) N 1,00 h 3,3 UV-I 398 W/m 17,7 C 19,9 C 0,0 km/h (0 Bft)
28.06.2017 13:00 26,0 C 21,7 C 57 % 77 % 1000,7 hPa 0,0 l/m 6,0 km/h (2 Bft) S 1,00 h 4,9 UV-I 487 W/m 17,5 C 21,2 C 10,6 km/h (2 Bft)
28.06.2017 14:00 26,1 C 23,0 C 56 % 68 % 1000,0 hPa 0,0 l/m 4,3 km/h (1 Bft) SW 1,00 h 4,6 UV-I 550 W/m 16,8 C 22,9 C 8,5 km/h (2 Bft)
28.06.2017 15:00 26,3 C 24,5 C 54 % 60 % 998,9 hPa 0,0 l/m 4,8 km/h (1 Bft) S 1,00 h 4,7 UV-I 671 W/m 16,1 C 24,3 C 10,0 km/h (2 Bft)
28.06.2017 16:00 26,3 C 24,5 C 52 % 58 % 998,3 hPa 0,0 l/m 6,4 km/h (2 Bft) S 0,93 h 2,8 UV-I 473 W/m 15,6 C 24,1 C 11,6 km/h (2 Bft)
28.06.2017 17:00 26,3 C 24,5 C 50 % 54 % 997,8 hPa 0,0 l/m 4,2 km/h (1 Bft) W-SW 0,73 h 1,8 UV-I 275 W/m 14,5 C 24,4 C 9,2 km/h (2 Bft)
28.06.2017 18:00 26,3 C 23,8 C 52 % 60 % 997,4 hPa 0,0 l/m 4,3 km/h (1 Bft) W-NW 0,27 h 1,0 UV-I 136 W/m 15,5 C 23,6 C 8,8 km/h (2 Bft)
28.06.2017 19:00 26,4 C 23,1 C 53 % 60 % 996,9 hPa 0,0 l/m 1,8 km/h (1 Bft) W-NW 0,00 h 0,6 UV-I 95 W/m 14,8 C 23,1 C 3,9 km/h (1 Bft)
28.06.2017 20:00 26,5 C 22,2 C 53 % 61 % 996,3 hPa 0,0 l/m 0,1 km/h (0 Bft) W 0,00 h 0,0 UV-I 35 W/m 14,3 C 22,2 C 0,4 km/h (0 Bft)
28.06.2017 21:00 26,3 C 20,6 C 52 % 68 % 995,9 hPa 0,0 l/m 0,1 km/h (0 Bft) N 0,00 h 0,0 UV-I 8 W/m 14,5 C 20,6 C 0,2 km/h (0 Bft)
28.06.2017 22:00 26,2 C 18,7 C 52 % 77 % 996,1 hPa 0,0 l/m 0,0 km/h (0 Bft) N 0,00 h 0,0 UV-I 0 W/m 14,7 C 18,7 C 0,0 km/h (0 Bft)
28.06.2017 23:00 26,2 C 17,8 C 52 % 83 % 995,7 hPa 0,0 l/m 0,0 km/h (0 Bft) N 0,00 h 0,0 UV-I 0 W/m 14,9 C 17,8 C 0,0 km/h (0 Bft)
29.06.2017 00:00 26,2 C 17,4 C 53 % 83 % 994,8 hPa 0,0 l/m 0,0 km/h (0 Bft) N 0,00 h 0,0 UV-I 0 W/m 14,5 C 17,4 C 0,0 km/h (0 Bft)
29.06.2017 01:00 26,1 C 17,1 C 53 % 87 % 994,3 hPa 0,0 l/m 0,0 km/h (0 Bft) N 0,00 h 0,0 UV-I 0 W/m 14,9 C 17,1 C 0,0 km/h (0 Bft)
29.06.2017 02:00 26,1 C 16,7 C 54 % 92 % 994,0 hPa 0,0 l/m 0,0 km/h (0 Bft) N 0,00 h 0,0 UV-I 0 W/m 15,4 C 16,7 C 0,1 km/h (0 Bft)
29.06.2017 03:00 26,0 C 16,4 C 54 % 93 % 993,4 hPa 0,2 l/m 0,0 km/h (0 Bft) N 0,00 h 0,0 UV-I 0 W/m 15,2 C 16,4 C 0,0 km/h (0 Bft)
29.06.2017 04:00 26,0 C 16,2 C 54 % 94 % 992,9 hPa 0,0 l/m 0,0 km/h (0 Bft) N 0,00 h 0,0 UV-I 0 W/m 15,2 C 16,2 C 0,1 km/h (0 Bft)
29.06.2017 05:00 25,8 C 15,9 C 55 % 95 % 992,7 hPa 0,2 l/m 0,9 km/h (0 Bft) W-SW 0,00 h 0,0 UV-I 5 W/m 15,1 C 15,9 C 2,1 km/h (1 Bft)
29.06.2017 06:00 25,8 C 15,9 C 55 % 95 % 992,6 hPa 0,0 l/m 0,0 km/h (0 Bft) N 0,00 h 0,0 UV-I 7 W/m 15,1 C 15,9 C 0,0 km/h (0 Bft)
29.06.2017 07:00 25,8 C 15,8 C 55 % 95 % 992,7 hPa 0,4 l/m 1,0 km/h (0 Bft) N-NW 0,00 h 0,0 UV-I 27 W/m 14,9 C 15,8 C 1,5 km/h (1 Bft)
29.06.2017 08:00 26,1 C 15,7 C 55 % 95 % 993,0 hPa 0,4 l/m 2,9 km/h (1 Bft) N 0,00 h 0,6 UV-I 56 W/m 14,9 C 15,7 C 2,2 km/h (1 Bft)
29.06.2017 09:00 26,1 C 16,1 C 55 % 96 % 993,3 hPa 1,0 l/m 2,5 km/h (1 Bft) W 0,00 h 0,7 UV-I 93 W/m 15,5 C 16,1 C 3,7 km/h (1 Bft)
29.06.2017 10:00 26,0 C 16,1 C 56 % 96 % 993,6 hPa 1,2 l/m 4,8 km/h (1 Bft) W-SW 0,00 h 0,7 UV-I 66 W/m 15,5 C 15,6 C 8,4 km/h (2 Bft)
29.06.2017 11:00 25,9 C 14,6 C 56 % 95 % 994,6 hPa 0,6 l/m 10,2 km/h (2 Bft) W 0,00 h 1,0 UV-I 107 W/m 13,9 C 12,7 C 18,5 km/h (3 Bft)
29.06.2017 12:00 25,9 C 14,6 C 55 % 96 % 995,7 hPa 2,2 l/m 7,0 km/h (2 Bft) W-SW 0,00 h 0,9 UV-I 95 W/m 13,9 C 13,7 C 13,2 km/h (3 Bft)
29.06.2017 13:00 26,0 C 14,1 C 55 % 95 % 996,8 hPa 1,2 l/m 9,5 km/h (2 Bft) W-SW 0,13 h 1,1 UV-I 114 W/m 13,3 C 12,4 C 17,9 km/h (3 Bft)
29.06.2017 14:00 26,0 C 13,7 C 55 % 95 % 997,8 hPa 0,4 l/m 5,8 km/h (2 Bft) W-SW 1,00 h 1,8 UV-I 198 W/m 12,9 C 13,2 C 12,4 km/h (3 Bft)
29.06.2017 15:00 25,9 C 14,8 C 55 % 95 % 998,1 hPa 0,2 l/m 5,9 km/h (2 Bft) W 1,00 h 2,2 UV-I 270 W/m 14,0 C 14,3 C 11,9 km/h (2 Bft)
29.06.2017 16:00 26,0 C 15,1 C 55 % 94 % 998,3 hPa 0,4 l/m 4,1 km/h (1 Bft) W-SW 0,72 h 1,4 UV-I 184 W/m 14,2 C 14,8 C 9,2 km/h (2 Bft)
29.06.2017 17:00 26,1 C 15,8 C 55 % 93 % 998,4 hPa 0,0 l/m 5,0 km/h (1 Bft) W-SW 0,98 h 1,4 UV-I 238 W/m 14,6 C 15,5 C 9,9 km/h (2 Bft)
29.06.2017 18:00 26,3 C 16,5 C 55 % 87 % 998,5 hPa 0,0 l/m 6,1 km/h (2 Bft) W-SW 0,67 h 1,0 UV-I 168 W/m 14,4 C 15,8 C 12,0 km/h (2 Bft)
29.06.2017 19:00 26,3 C 16,5 C 55 % 88 % 999,1 hPa 0,0 l/m 0,8 km/h (0 Bft) W-SW 0,00 h 0,6 UV-I 81 W/m 14,5 C 16,5 C 3,0 km/h (1 Bft)
29.06.2017 20:00 26,3 C 15,8 C 55 % 91 % 999,3 hPa 0,0 l/m 0,0 km/h (0 Bft) N 0,00 h 0,0 UV-I 27 W/m 14,4 C 15,8 C 0,0 km/h (0 Bft)
29.06.2017 21:00 26,4 C 15,2 C 55 % 93 % 999,8 hPa 0,0 l/m 0,0 km/h (0 Bft) S 0,00 h 0,0 UV-I 7 W/m 14,0 C 15,2 C 0,0 km/h (0 Bft)
29.06.2017 22:00 26,3 C 14,9 C 54 % 93 % 1000,5 hPa 0,0 l/m 4,1 km/h (1 Bft) SW 0,00 h 0,0 UV-I 0 W/m 13,8 C 14,6 C 9,4 km/h (2 Bft)
29.06.2017 23:00 26,0 C 14,3 C 54 % 94 % 1001,3 hPa 0,2 l/m 2,4 km/h (1 Bft) SW 0,00 h 0,0 UV-I 0 W/m 13,4 C 14,2 C 6,4 km/h (2 Bft)
30.06.2017 00:00 25,8 C 14,1 C 53 % 95 % 1002,0 hPa 0,0 l/m 3,5 km/h (1 Bft) SW 0,00 h 0,0 UV-I 0 W/m 13,3 C 14,1 C 8,1 km/h (2 Bft)
30.06.2017 01:00 25,6 C 13,8 C 53 % 95 % 1002,1 hPa 0,0 l/m 3,4 km/h (1 Bft) SW 0,00 h 0,0 UV-I 0 W/m 13,1 C 13,8 C 8,1 km/h (2 Bft)
30.06.2017 02:00 25,5 C 13,5 C 53 % 94 % 1002,7 hPa 0,0 l/m 4,2 km/h (1 Bft) SW 0,00 h 0,0 UV-I 0 W/m 12,6 C 13,3 C 10,1 km/h (2 Bft)
30.06.2017 03:00 25,5 C 13,2 C 52 % 94 % 1002,6 hPa 0,0 l/m 3,9 km/h (1 Bft) SW 0,00 h 0,0 UV-I 0 W/m 12,3 C 13,1 C 8,9 km/h (2 Bft)
30.06.2017 04:00 25,6 C 12,7 C 52 % 93 % 1003,2 hPa 0,0 l/m 3,5 km/h (1 Bft) S-SW 0,00 h 0,0 UV-I 0 W/m 11,6 C 12,5 C 8,6 km/h (2 Bft)
30.06.2017 05:00 25,4 C 12,3 C 51 % 93 % 1004,0 hPa 0,0 l/m 3,8 km/h (1 Bft) SW 0,00 h 0,0 UV-I 27 W/m 11,2 C 12,0 C 10,2 km/h (2 Bft)
30.06.2017 06:00 25,4 C 12,6 C 50 % 93 % 1004,3 hPa 0,0 l/m 2,5 km/h (1 Bft) W-SW 0,00 h 0,0 UV-I 26 W/m 11,4 C 12,6 C 7,3 km/h (2 Bft)
30.06.2017 07:00 25,3 C 12,7 C 50 % 92 % 1004,6 hPa 0,0 l/m 4,7 km/h (1 Bft) W-SW 0,00 h 0,5 UV-I 52 W/m 11,4 C 12,5 C 11,1 km/h (2 Bft)
30.06.2017 08:00 25,3 C 13,6 C 50 % 89 % 1005,3 hPa 0,0 l/m 5,1 km/h (1 Bft) SW 0,35 h 0,8 UV-I 134 W/m 11,8 C 13,3 C 11,8 km/h (2 Bft)
30.06.2017 09:00 25,4 C 14,4 C 50 % 87 % 1005,8 hPa 0,0 l/m 5,0 km/h (1 Bft) SW 0,37 h 1,1 UV-I 155 W/m 12,2 C 14,0 C 10,6 km/h (2 Bft)
30.06.2017 10:00 25,6 C 16,0 C 49 % 79 % 1005,9 hPa 0,0 l/m 7,6 km/h (2 Bft) SW 0,93 h 2,7 UV-I 316 W/m 12,3 C 15,0 C 15,1 km/h (3 Bft)
30.06.2017 11:00 25,6 C 17,6 C 49 % 70 % 1006,1 hPa 0,0 l/m 9,2 km/h (2 Bft) W-SW 1,00 h 4,6 UV-I 719 W/m 12,1 C 16,3 C 18,0 km/h (3 Bft)
30.06.2017 12:00 25,7 C 18,1 C 49 % 67 % 1006,1 hPa 0,0 l/m 9,2 km/h (2 Bft) W-SW 0,95 h 5,0 UV-I 650 W/m 11,9 C 16,8 C 17,8 km/h (3 Bft)
30.06.2017 13:00 25,8 C 17,1 C 49 % 71 % 1006,4 hPa 0,2 l/m 7,0 km/h (2 Bft) SW 0,70 h 3,4 UV-I 466 W/m 11,6 C 16,3 C 15,4 km/h (3 Bft)
30.06.2017 14:00 25,8 C 18,4 C 48 % 67 % 1006,3 hPa 0,0 l/m 6,1 km/h (2 Bft) W-SW 0,93 h 4,1 UV-I 550 W/m 12,1 C 18,0 C 13,5 km/h (3 Bft)
30.06.2017 15:00 25,9 C 18,4 C 49 % 68 % 1006,3 hPa 0,2 l/m 5,4 km/h (1 Bft) W-SW 0,83 h 3,4 UV-I 487 W/m 12,4 C 18,0 C 11,7 km/h (2 Bft)
30.06.2017 16:00 25,8 C 20,5 C 50 % 53 % 1005,9 hPa 0,0 l/m 8,5 km/h (2 Bft) W-SW 1,00 h 3,6 UV-I 669 W/m 10,7 C 19,6 C 16,0 km/h (3 Bft)
30.06.2017 17:00 25,8 C 20,7 C 50 % 49 % 1005,8 hPa 0,0 l/m 8,3 km/h (2 Bft) W-SW 0,83 h 2,1 UV-I 459 W/m 9,5 C 19,8 C 15,8 km/h (3 Bft)
30.06.2017 18:00 25,9 C 20,0 C 50 % 50 % 1005,6 hPa 0,0 l/m 5,0 km/h (1 Bft) W-SW 0,00 h 1,0 UV-I 53 W/m 9,4 C 19,8 C 10,4 km/h (2 Bft)
30.06.2017 19:00 25,8 C 19,4 C 50 % 51 % 1005,9 hPa 0,0 l/m 5,9 km/h (2 Bft) W-SW 0,00 h 0,0 UV-I 31 W/m 9,0 C 18,9 C 11,4 km/h (2 Bft)
30.06.2017 20:00 25,9 C 18,6 C 49 % 54 % 1006,2 hPa 0,0 l/m 2,3 km/h (1 Bft) W-SW 0,00 h 0,0 UV-I 16 W/m 9,0 C 18,5 C 5,3 km/h (1 Bft)
30.06.2017 21:00 26,1 C 16,6 C 49 % 63 % 1006,4 hPa 0,0 l/m 0,0 km/h (0 Bft) N 0,00 h 0,0 UV-I 6 W/m 9,6 C 16,6 C 0,0 km/h (0 Bft)
30.06.2017 22:00 26,1 C 14,0 C 50 % 77 % 1006,8 hPa 0,0 l/m 0,0 km/h (0 Bft) N 0,00 h 0,0 UV-I 0 W/m 9,9 C 14,0 C 0,0 km/h (0 Bft)
30.06.2017 23:00 25,8 C 12,1 C 50 % 85 % 1006,9 hPa 0,0 l/m 0,0 km/h (0 Bft) N 0,00 h 0,0 UV-I 0 W/m 9,8 C 12,1 C 0,0 km/h (0 Bft)
01.07.2017 00:00 25,6 C 10,8 C 49 % 90 % 1006,8 hPa 0,0 l/m 0,0 km/h (0 Bft) N 0,00 h 0,0 UV-I 0 W/m 9,1 C 10,8 C 0,0 km/h (0 Bft)
01.07.2017 01:00 25,3 C 10,5 C 48 % 91 % 1007,1 hPa 0,0 l/m 0,0 km/h (0 Bft) N 0,00 h 0,0 UV-I 0 W/m 9,1 C 10,5 C 0,0 km/h (0 Bft)
01.07.2017 02:00 25,3 C 9,9 C 48 % 92 % 1007,3 hPa 0,0 l/m 0,0 km/h (0 Bft) N 0,00 h 0,0 UV-I 0 W/m 8,6 C 9,9 C 0,0 km/h (0 Bft)
01.07.2017 03:00 25,2 C 10,5 C 48 % 91 % 1007,4 hPa 0,0 l/m 0,0 km/h (0 Bft) N 0,00 h 0,0 UV-I 0 W/m 9,1 C 10,5 C 0,0 km/h (0 Bft)
01.07.2017 04:00 25,1 C 11,6 C 48 % 89 % 1007,4 hPa 0,0 l/m 0,1 km/h (0 Bft) SW 0,00 h 0,0 UV-I 0 W/m 9,7 C 11,6 C 0,3 km/h (0 Bft)
01.07.2017 05:00 24,9 C 12,6 C 48 % 86 % 1007,8 hPa 0,0 l/m 1,7 km/h (1 Bft) SW 0,00 h 0,0 UV-I 12 W/m 10,4 C 12,6 C 4,7 km/h (1 Bft)
01.07.2017 06:00 24,3 C 12,8 C 47 % 86 % 1007,9 hPa 0,0 l/m 6,4 km/h (2 Bft) S 0,00 h 0,5 UV-I 55 W/m 10,6 C 12,2 C 11,5 km/h (2 Bft)
01.07.2017 07:00 24,0 C 13,8 C 47 % 84 % 1008,2 hPa 0,0 l/m 6,8 km/h (2 Bft) SW 0,20 h 0,7 UV-I 184 W/m 11,2 C 13,2 C 12,7 km/h (3 Bft)
01.07.2017 08:00 24,0 C 15,1 C 48 % 80 % 1008,5 hPa 0,0 l/m 7,8 km/h (2 Bft) SW 0,60 h 1,1 UV-I 190 W/m 11,6 C 14,2 C 15,4 km/h (3 Bft)
01.07.2017 09:00 24,4 C 15,4 C 48 % 78 % 1008,8 hPa 0,0 l/m 7,3 km/h (2 Bft) W-SW 0,95 h 1,4 UV-I 204 W/m 11,5 C 14,4 C 14,2 km/h (3 Bft)
01.07.2017 10:00 24,8 C 16,3 C 48 % 75 % 1009,0 hPa 0,0 l/m 7,9 km/h (2 Bft) W-SW 1,00 h 2,5 UV-I 351 W/m 11,8 C 15,2 C 15,5 km/h (3 Bft)
01.07.2017 11:00 25,1 C 16,9 C 49 % 72 % 1009,0 hPa 0,0 l/m 7,8 km/h (2 Bft) W-SW 0,80 h 2,2 UV-I 280 W/m 11,8 C 15,9 C 15,1 km/h (3 Bft)
01.07.2017 12:00 25,1 C 16,0 C 50 % 83 % 1009,4 hPa 0,2 l/m 7,7 km/h (2 Bft) W-SW 0,97 h 3,8 UV-I 451 W/m 13,1 C 14,9 C 14,9 km/h (3 Bft)
01.07.2017 13:00 25,3 C 17,5 C 51 % 75 % 1009,4 hPa 0,0 l/m 8,8 km/h (2 Bft) W-SW 1,00 h 4,5 UV-I 470 W/m 12,9 C 16,2 C 17,8 km/h (3 Bft)
01.07.2017 14:00 25,4 C 18,3 C 51 % 68 % 1009,6 hPa 0,0 l/m 12,1 km/h (2 Bft) W-SW 1,00 h 4,8 UV-I 569 W/m 12,3 C 16,3 C 23,6 km/h (4 Bft)
01.07.2017 15:00 25,5 C 17,7 C 51 % 73 % 1010,0 hPa 0,2 l/m 8,1 km/h (2 Bft) W-SW 0,82 h 3,0 UV-I 375 W/m 12,7 C 16,5 C 17,1 km/h (3 Bft)
01.07.2017 16:00 25,5 C 16,8 C 52 % 83 % 1010,1 hPa 0,0 l/m 3,8 km/h (1 Bft) W-SW 0,67 h 2,0 UV-I 342 W/m 13,9 C 16,7 C 9,5 km/h (2 Bft)
01.07.2017 17:00 25,7 C 17,2 C 52 % 77 % 1010,1 hPa 0,0 l/m 6,9 km/h (2 Bft) W-SW 0,67 h 1,3 UV-I 183 W/m 13,1 C 16,4 C 13,5 km/h (3 Bft)
01.07.2017 18:00 25,8 C 17,3 C 53 % 72 % 1010,3 hPa 0,0 l/m 6,6 km/h (2 Bft) W-SW 0,42 h 0,9 UV-I 140 W/m 12,1 C 16,6 C 13,2 km/h (3 Bft)
01.07.2017 19:00 25,8 C 16,8 C 54 % 74 % 1010,6 hPa 0,0 l/m 5,3 km/h (1 Bft) W-SW 0,00 h 0,0 UV-I 54 W/m 12,1 C 16,5 C 11,6 km/h (2 Bft)
01.07.2017 20:00 25,8 C 16,4 C 54 % 73 % 1011,0 hPa 0,0 l/m 7,1 km/h (2 Bft) W-SW 0,00 h 0,0 UV-I 10 W/m 11,6 C 15,7 C 14,0 km/h (3 Bft)
01.07.2017 21:00 25,8 C 15,4 C 55 % 79 % 1011,6 hPa 0,0 l/m 7,0 km/h (2 Bft) W-SW 0,00 h 0,0 UV-I 0 W/m 11,7 C 14,4 C 14,2 km/h (3 Bft)
01.07.2017 22:00 25,8 C 14,6 C 55 % 84 % 1011,8 hPa 0,0 l/m 6,8 km/h (2 Bft) W-SW 0,00 h 0,0 UV-I 0 W/m 11,9 C 13,9 C 12,2 km/h (2 Bft)
01.07.2017 23:00 25,7 C 13,6 C 55 % 92 % 1012,2 hPa 0,0 l/m 3,6 km/h (1 Bft) W-SW 0,00 h 0,0 UV-I 0 W/m 12,3 C 13,4 C 9,1 km/h (2 Bft)
02.07.2017 00:00 25,5 C 13,4 C 55 % 94 % 1012,5 hPa 0,4 l/m 3,8 km/h (1 Bft) W-SW 0,00 h 0,0 UV-I 0 W/m 12,5 C 13,2 C 8,9 km/h (2 Bft)
02.07.2017 01:00 25,3 C 13,4 C 55 % 95 % 1012,6 hPa 0,4 l/m 3,3 km/h (1 Bft) W-SW 0,00 h 0,0 UV-I 0 W/m 12,6 C 13,3 C 9,1 km/h (2 Bft)
02.07.2017 02:00 25,2 C 13,4 C 55 % 96 % 1012,6 hPa 0,0 l/m 1,8 km/h (1 Bft) W 0,00 h 0,0 UV-I 0 W/m 12,7 C 13,3 C 5,0 km/h (1 Bft)
02.07.2017 03:00 25,2 C 13,4 C 55 % 96 % 1012,9 hPa 0,0 l/m 0,4 km/h (0 Bft) W 0,00 h 0,0 UV-I 0 W/m 12,8 C 13,4 C 1,6 km/h (1 Bft)
02.07.2017 04:00 25,1 C 13,4 C 55 % 97 % 1013,3 hPa 0,0 l/m 0,0 km/h (0 Bft) N 0,00 h 0,0 UV-I 0 W/m 12,9 C 13,4 C 0,0 km/h (0 Bft)
02.07.2017 05:00 25,1 C 13,4 C 55 % 97 % 1013,8 hPa 0,0 l/m 0,0 km/h (0 Bft) N 0,00 h 0,0 UV-I 5 W/m 12,9 C 13,4 C 0,0 km/h (0 Bft)
02.07.2017 06:00 25,1 C 13,7 C 55 % 96 % 1014,4 hPa 0,0 l/m 0,0 km/h (0 Bft) N 0,00 h 0,0 UV-I 23 W/m 13,1 C 13,7 C 0,1 km/h (0 Bft)
02.07.2017 07:00 25,1 C 14,5 C 55 % 94 % 1014,8 hPa 0,2 l/m 0,6 km/h (0 Bft) W-NW 0,37 h 0,8 UV-I 172 W/m 13,5 C 14,5 C 2,1 km/h (1 Bft)
02.07.2017 08:00 25,2 C 16,0 C 56 % 84 % 1015,3 hPa 0,0 l/m 5,2 km/h (1 Bft) W-NW 1,00 h 1,7 UV-I 467 W/m 13,3 C 15,5 C 9,5 km/h (2 Bft)
02.07.2017 09:00 25,4 C 18,0 C 56 % 72 % 1015,5 hPa 0,0 l/m 3,3 km/h (1 Bft) NW 1,00 h 3,0 UV-I 640 W/m 12,9 C 17,9 C 7,8 km/h (2 Bft)
02.07.2017 10:00 25,4 C 20,1 C 55 % 60 % 1015,6 hPa 0,0 l/m 5,6 km/h (1 Bft) NW 1,00 h 4,7 UV-I 786 W/m 12,1 C 19,8 C 11,3 km/h (2 Bft)
02.07.2017 11:00 25,7 C 20,5 C 56 % 56 % 1015,8 hPa 0,0 l/m 3,5 km/h (1 Bft) W-SW 1,00 h 3,7 UV-I 459 W/m 11,4 C 20,4 C 8,8 km/h (2 Bft)
02.07.2017 12:00 25,8 C 19,8 C 57 % 63 % 1016,1 hPa 0,0 l/m 6,1 km/h (2 Bft) W-NW 0,90 h 4,1 UV-I 450 W/m 12,5 C 19,3 C 12,3 km/h (3 Bft)
02.07.2017 13:00 25,8 C 20,8 C 56 % 60 % 1016,2 hPa 0,0 l/m 7,3 km/h (2 Bft) W 0,97 h 4,4 UV-I 456 W/m 12,6 C 20,1 C 13,5 km/h (3 Bft)
02.07.2017 14:00 25,8 C 19,9 C 56 % 62 % 1016,5 hPa 0,0 l/m 7,0 km/h (2 Bft) W 0,88 h 3,2 UV-I 304 W/m 12,3 C 19,3 C 13,4 km/h (3 Bft)
02.07.2017 15:00 25,9 C 20,9 C 54 % 58 % 1016,5 hPa 0,0 l/m 7,0 km/h (2 Bft) W 1,00 h 4,7 UV-I 718 W/m 12,3 C 20,3 C 13,6 km/h (3 Bft)
02.07.2017 16:00 25,9 C 20,3 C 52 % 59 % 1016,4 hPa 0,0 l/m 6,4 km/h (2 Bft) W 0,97 h 2,3 UV-I 289 W/m 11,9 C 19,8 C 12,7 km/h (3 Bft)
02.07.2017 17:00 25,9 C 19,2 C 53 % 64 % 1016,8 hPa 0,0 l/m 9,1 km/h (2 Bft) W 0,47 h 1,7 UV-I 142 W/m 12,1 C 18,0 C 17,6 km/h (3 Bft)
02.07.2017 18:00 25,9 C 17,0 C 53 % 74 % 1017,3 hPa 0,0 l/m 3,9 km/h (1 Bft) W-NW 0,00 h 0,0 UV-I 37 W/m 12,4 C 16,6 C 8,3 km/h (2 Bft)
02.07.2017 19:00 25,9 C 16,7 C 53 % 78 % 1017,3 hPa 0,0 l/m 2,3 km/h (1 Bft) W-SW 0,00 h 0,5 UV-I 61 W/m 12,8 C 16,6 C 5,5 km/h (1 Bft)
02.07.2017 20:00 25,8 C 16,6 C 53 % 75 % 1017,8 hPa 0,0 l/m 5,4 km/h (1 Bft) W 0,00 h 0,0 UV-I 19 W/m 12,1 C 16,2 C 10,5 km/h (2 Bft)
02.07.2017 21:00 26,0 C 16,1 C 52 % 77 % 1018,3 hPa 0,0 l/m 2,7 km/h (1 Bft) W 0,00 h 0,0 UV-I 0 W/m 12,1 C 16,0 C 6,3 km/h (2 Bft)
02.07.2017 22:00 25,9 C 15,7 C 52 % 79 % 1018,6 hPa 0,0 l/m 1,4 km/h (1 Bft) W-SW 0,00 h 0,0 UV-I 0 W/m 11,9 C 15,7 C 3,9 km/h (1 Bft)
02.07.2017 23:00 25,7 C 15,0 C 53 % 82 % 1018,9 hPa 0,0 l/m 0,4 km/h (0 Bft) W-SW 0,00 h 0,0 UV-I 0 W/m 12,0 C 15,0 C 1,6 km/h (1 Bft)
Min-Datum _ 01.07.17 27.06.17 26.06.17 26.06.17 29.06.17 - 26.06.17 - - - - 01.07.17 29.06.17 26.06.17
_ Min-Zeit 07:00 03:13 00:00 15:25 05:02 - 00:03 - - - - 02:47 13:24 00:04
Minimum _ 23,9 C 0,0 C 46 % 45 % 992,5 hPa - 0,0 km/h (0 Bft) - - - - 8,4 C 8,2 C 0,0 km/h (0 Bft)
Max-Datum _ 26.06.17 26.06.17 28.06.17 29.06.17 02.07.17 29.06.17 26.06.17 - 26.06.17 02.07.17 02.07.17 28.06.17 26.06.17 01.07.17
_ Max-Zeit 17:01 16:49 12:58 10:27 23:52 12:05 10:38 - 15:48 12:48 13:04 13:16 16:49 12:58
Maximum _ 27,1 C 26,9 C 58 % 97 % 1019,1 hPa 2,2 l/m 27,4 km/h
W-SW (4 Bft)
- 0,03 h 9,0 UV-I 1213 W/m 18,7 C 26,9 C 43,5 km/h
W-SW (6 Bft)
Durchschnitt _ 25,8 C 17,0 C 52 % 80 % 1006,6 hPa #13,6 l/m 3,5 km/h (1 Bft) W-SW #52:20 h 2,2 UV-I 222 W/m 13,2 C 16,8 C 6,7 km/h (2 Bft)